createdAt,value
2023-03-29T00:00:09.045Z,5.43
2023-03-29T00:03:14.943Z,8.98
2023-03-29T00:06:22.407Z,4.65
2023-03-29T00:09:26.871Z,7.53
2023-03-29T00:12:30.435Z,4.55
2023-03-29T00:15:33.654Z,5.93
2023-03-29T00:18:37.145Z,7.10
2023-03-29T00:21:40.277Z,4.72
2023-03-29T00:24:43.832Z,4.10
2023-03-29T00:27:47.159Z,6.30
2023-03-29T00:30:53.644Z,6.68
2023-03-29T00:33:56.951Z,6.03
2023-03-29T00:37:00.470Z,6.90
2023-03-29T00:40:09.486Z,5.53
2023-03-29T00:43:14.753Z,5.10
2023-03-29T00:46:18.115Z,5.57
2023-03-29T00:49:26.541Z,5.50
2023-03-29T00:52:32.280Z,5.03
2023-03-29T00:55:40.156Z,5.57
2023-03-29T00:58:49.762Z,5.12
2023-03-29T01:02:22.567Z,5.28
2023-03-29T01:05:32.765Z,6.15
2023-03-29T01:08:57.791Z,6.25
2023-03-29T01:12:09.900Z,6.87
2023-03-29T01:15:17.659Z,7.37
2023-03-29T01:18:22.163Z,7.90
2023-03-29T01:21:32.488Z,6.05
2023-03-29T01:24:46.314Z,7.62
2023-03-29T01:27:56.528Z,5.17
2023-03-29T01:31:08.451Z,7.30
2023-03-29T01:34:25.903Z,8.13
2023-03-29T01:37:36.443Z,7.50
2023-03-29T01:40:40.135Z,10.15
2023-03-29T01:43:43.415Z,9.60
2023-03-29T01:47:05.839Z,5.68
2023-03-29T01:50:32.888Z,6.23
2023-03-29T01:53:44.109Z,5.53
2023-03-29T01:56:50.713Z,4.85
2023-03-29T01:59:57.932Z,7.20
2023-03-29T02:03:05.974Z,6.57
2023-03-29T02:06:13.030Z,5.85
2023-03-29T02:09:17.407Z,5.78
2023-03-29T02:12:22.378Z,7.20
2023-03-29T02:15:25.919Z,6.05
2023-03-29T02:18:30.351Z,7.32
2023-03-29T02:21:53.499Z,5.40
2023-03-29T02:24:59.372Z,6.85
2023-03-29T02:28:03.795Z,9.85
2023-03-29T02:31:16.026Z,8.83
2023-03-29T02:34:30.154Z,7.43
2023-03-29T02:37:40.639Z,6.37
2023-03-29T02:40:46.852Z,7.45
2023-03-29T02:43:50.946Z,9.40
2023-03-29T02:46:58.902Z,10.75
2023-03-29T02:50:02.575Z,8.48
2023-03-29T02:53:13.372Z,12.13
2023-03-29T02:56:17.211Z,10.32
2023-03-29T02:59:22.803Z,10.52
2023-03-29T03:02:26.166Z,7.20
2023-03-29T03:05:29.922Z,8.63
2023-03-29T03:08:33.267Z,8.63
2023-03-29T03:11:36.828Z,7.90
2023-03-29T03:14:40.572Z,7.07
2023-03-29T03:17:46.699Z,6.53
2023-03-29T03:21:02.209Z,7.43
2023-03-29T03:24:07.742Z,7.23
2023-03-29T03:27:10.897Z,7.57
2023-03-29T03:30:16.215Z,7.57
2023-03-29T03:33:20.342Z,8.13
2023-03-29T03:36:26.172Z,9.20
2023-03-29T03:39:29.746Z,11.10
2023-03-29T03:42:33.863Z,12.63
2023-03-29T03:45:37.958Z,7.53
2023-03-29T03:48:43.224Z,8.50
2023-03-29T03:51:47.781Z,12.18
2023-03-29T03:54:52.672Z,7.53
2023-03-29T03:57:58.785Z,8.70
2023-03-29T04:01:04.364Z,12.10
2023-03-29T04:04:10.396Z,12.97
2023-03-29T04:07:15.097Z,8.68
2023-03-29T04:10:18.791Z,9.02
2023-03-29T04:13:23.884Z,10.45
2023-03-29T04:16:35.066Z,10.73
2023-03-29T04:19:39.537Z,8.98
2023-03-29T04:22:43.872Z,9.93
2023-03-29T04:25:47.202Z,13.23
2023-03-29T04:28:54.829Z,10.52
2023-03-29T04:31:58.602Z,10.90
2023-03-29T04:35:05.831Z,8.90
2023-03-29T04:38:11.396Z,12.65
2023-03-29T04:41:15.684Z,14.85
2023-03-29T04:44:19.554Z,15.68
2023-03-29T04:47:24.350Z,13.25
2023-03-29T04:50:28.382Z,13.65
2023-03-29T04:53:31.973Z,13.15
2023-03-29T04:56:35.358Z,14.63
2023-03-29T04:59:42.555Z,16.50
2023-03-29T05:02:48.762Z,15.65
2023-03-29T05:05:52.173Z,18.57
2023-03-29T05:08:55.581Z,17.70
2023-03-29T05:11:59.402Z,25.40
2023-03-29T05:15:04.525Z,12.75
2023-03-29T05:18:09.717Z,12.70
2023-03-29T05:21:13.367Z,13.45
2023-03-29T05:24:17.994Z,20.62
2023-03-29T05:27:23.064Z,21.60
2023-03-29T05:30:27.381Z,17.00
2023-03-29T05:33:31.704Z,20.02
2023-03-29T05:36:35.979Z,16.30
2023-03-29T05:39:39.877Z,22.02
2023-03-29T05:42:43.668Z,14.65
2023-03-29T05:45:47.651Z,11.10
2023-03-29T05:48:51.773Z,12.37
2023-03-29T05:51:59.270Z,16.12
2023-03-29T05:55:04.563Z,10.73
2023-03-29T05:58:07.804Z,9.37
2023-03-29T06:01:13.964Z,11.85
2023-03-29T06:04:20.867Z,10.23
2023-03-29T06:07:25.623Z,17.60
2023-03-29T06:10:36.660Z,10.35
2023-03-29T06:13:43.754Z,11.48
2023-03-29T06:16:47.285Z,18.55
2023-03-29T06:19:53.139Z,13.57
2023-03-29T06:22:58.708Z,12.25
2023-03-29T06:26:02.000Z,17.05
2023-03-29T06:29:05.781Z,8.07
2023-03-29T06:32:09.836Z,9.10
2023-03-29T06:35:15.703Z,10.80
2023-03-29T06:38:21.004Z,17.23
2023-03-29T06:41:26.617Z,13.62
2023-03-29T06:44:31.419Z,9.82
2023-03-29T06:47:37.141Z,12.93
2023-03-29T06:50:40.849Z,16.60
2023-03-29T06:53:45.138Z,10.85
2023-03-29T06:56:49.762Z,21.02
2023-03-29T06:59:54.015Z,7.20
2023-03-29T07:02:59.582Z,12.18
2023-03-29T07:06:10.633Z,12.77
2023-03-29T07:09:18.356Z,8.43
2023-03-29T07:12:24.160Z,7.57
2023-03-29T07:15:29.568Z,8.23
2023-03-29T07:18:36.433Z,7.62
2023-03-29T07:21:40.100Z,10.23
2023-03-29T07:24:45.103Z,11.63
2023-03-29T07:27:50.327Z,10.00
2023-03-29T07:31:02.023Z,9.90
2023-03-29T07:34:11.018Z,12.25
2023-03-29T07:37:14.507Z,6.10
2023-03-29T07:40:22.766Z,11.37
2023-03-29T07:43:26.833Z,6.78
2023-03-29T07:46:31.499Z,8.65
2023-03-29T07:49:34.892Z,4.80
2023-03-29T07:52:38.488Z,5.73
2023-03-29T07:55:47.674Z,5.50
2023-03-29T07:58:52.178Z,5.78
2023-03-29T08:01:56.857Z,6.53
2023-03-29T08:05:01.740Z,9.02
2023-03-29T08:08:14.488Z,17.15
2023-03-29T08:11:21.896Z,18.02
2023-03-29T08:14:28.288Z,6.97
2023-03-29T08:17:33.554Z,5.47
2023-03-29T08:20:37.415Z,5.00
2023-03-29T08:23:41.314Z,6.75
2023-03-29T08:26:45.173Z,6.55
2023-03-29T08:29:51.320Z,5.43
2023-03-29T08:32:55.522Z,6.15
2023-03-29T08:35:59.267Z,8.18
2023-03-29T08:39:03.629Z,7.10
2023-03-29T08:42:17.288Z,6.30
2023-03-29T08:45:35.531Z,3.87
2023-03-29T08:48:44.350Z,4.18
2023-03-29T08:52:02.650Z,3.97
2023-03-29T08:55:14.054Z,4.25
2023-03-29T08:58:26.543Z,6.78
2023-03-29T09:01:35.566Z,7.07
2023-03-29T09:04:42.672Z,5.15
2023-03-29T09:07:46.893Z,5.78
2023-03-29T09:11:20.942Z,65.28
2023-03-29T09:14:39.211Z,32.85
2023-03-29T09:17:47.123Z,6.57
2023-03-29T09:21:48.775Z,4.53
2023-03-29T09:25:06.221Z,3.92
2023-03-29T09:28:22.143Z,3.47
2023-03-29T09:31:39.375Z,4.60
2023-03-29T09:34:49.023Z,4.20
2023-03-29T09:37:54.358Z,5.00
2023-03-29T09:41:21.416Z,3.67
2023-03-29T09:44:36.055Z,4.90
2023-03-29T09:47:46.409Z,5.57
2023-03-29T09:50:51.820Z,6.33
2023-03-29T09:53:57.572Z,5.75
2023-03-29T09:57:01.194Z,7.60
2023-03-29T10:00:06.468Z,4.40
2023-03-29T10:03:30.211Z,4.05
2023-03-29T10:06:35.858Z,4.90
2023-03-29T10:09:39.577Z,3.65
2023-03-29T10:12:51.105Z,4.68
2023-03-29T10:16:20.574Z,5.32
2023-03-29T10:19:35.935Z,4.97
2023-03-29T10:22:40.933Z,4.23
2023-03-29T10:25:44.656Z,4.97
2023-03-29T10:28:47.873Z,4.40
2023-03-29T10:31:52.278Z,3.65
2023-03-29T10:35:05.529Z,4.37
2023-03-29T10:38:14.996Z,10.93
2023-03-29T10:41:20.234Z,6.07
2023-03-29T10:44:32.777Z,4.45
2023-03-29T10:47:36.868Z,5.47
2023-03-29T10:50:41.717Z,5.28
2023-03-29T10:53:45.520Z,5.67
2023-03-29T10:56:58.725Z,4.57
2023-03-29T11:00:07.576Z,7.10
2023-03-29T11:03:31.514Z,6.20
2023-03-29T11:06:44.237Z,5.82
2023-03-29T11:10:11.385Z,11.57
2023-03-29T11:13:37.519Z,6.18
2023-03-29T11:16:48.011Z,5.28
2023-03-29T11:20:27.157Z,4.72
2023-03-29T11:23:46.054Z,61.58
2023-03-29T11:27:22.556Z,8.13
2023-03-29T11:30:49.982Z,7.78
2023-03-29T11:34:24.909Z,8.88
2023-03-29T11:37:43.560Z,7.65
2023-03-29T11:41:02.920Z,6.30
2023-03-29T11:44:20.556Z,6.83
2023-03-29T11:47:29.139Z,7.30
2023-03-29T11:50:37.486Z,5.70
2023-03-29T11:53:56.510Z,7.07
2023-03-29T11:57:18.942Z,4.87
2023-03-29T12:00:55.862Z,5.83
2023-03-29T12:04:13.133Z,12.20
2023-03-29T12:07:19.279Z,5.72
2023-03-29T12:10:34.925Z,5.15
2023-03-29T12:13:47.804Z,9.38
2023-03-29T12:16:58.498Z,4.87
2023-03-29T12:20:08.158Z,7.87
2023-03-29T12:23:17.795Z,5.82
2023-03-29T12:27:04.011Z,8.40
2023-03-29T12:30:28.457Z,6.60
2023-03-29T12:33:45.986Z,10.67
2023-03-29T12:37:19.658Z,6.45
2023-03-29T12:40:28.478Z,6.70
2023-03-29T12:43:40.596Z,6.43
2023-03-29T12:46:53.737Z,7.15
2023-03-29T12:49:59.665Z,6.53
2023-03-29T12:53:16.805Z,8.27
2023-03-29T12:56:23.916Z,27.20
2023-03-29T12:59:43.409Z,5.47
2023-03-29T13:03:02.967Z,9.02
2023-03-29T13:06:09.463Z,6.47
2023-03-29T13:09:31.404Z,7.15
2023-03-29T13:12:51.201Z,9.45
2023-03-29T13:15:54.621Z,5.35
2023-03-29T13:19:16.974Z,7.72
2023-03-29T13:22:39.697Z,7.33
2023-03-29T13:25:59.445Z,5.57
2023-03-29T13:29:06.203Z,9.80
2023-03-29T13:32:18.502Z,6.50
2023-03-29T13:36:03.720Z,9.07
2023-03-29T13:39:15.043Z,5.27
2023-03-29T13:42:26.205Z,6.80
2023-03-29T13:45:32.580Z,6.62
2023-03-29T13:48:36.217Z,4.78
2023-03-29T13:51:42.656Z,6.78
2023-03-29T13:54:53.840Z,8.47
2023-03-29T13:58:02.810Z,13.15
2023-03-29T14:01:13.531Z,12.93
2023-03-29T14:04:25.071Z,8.43
2023-03-29T14:07:32.731Z,19.92
2023-03-29T14:10:46.096Z,19.00
2023-03-29T14:13:53.005Z,9.85
2023-03-29T14:16:57.159Z,10.95
2023-03-29T14:20:01.202Z,12.68
2023-03-29T14:23:16.199Z,8.88
2023-03-29T14:26:22.424Z,13.20
2023-03-29T14:29:31.670Z,13.73
2023-03-29T14:32:37.100Z,7.10
2023-03-29T14:35:41.224Z,7.10
2023-03-29T14:38:50.113Z,7.37
2023-03-29T14:41:56.930Z,8.07
2023-03-29T14:45:07.070Z,12.25
2023-03-29T14:48:13.461Z,18.58
2023-03-29T14:51:17.766Z,13.10
2023-03-29T14:54:29.876Z,18.95
2023-03-29T14:57:36.519Z,18.13
2023-03-29T15:00:42.623Z,10.35
2023-03-29T15:04:04.914Z,7.57
2023-03-29T15:07:09.487Z,12.07
2023-03-29T15:10:19.380Z,129.70
2023-03-29T15:13:25.444Z,48.20
2023-03-29T15:16:31.861Z,73.45
2023-03-29T15:19:36.549Z,44.28
2023-03-29T15:23:01.566Z,21.52
2023-03-29T15:26:14.527Z,16.92
2023-03-29T15:29:23.627Z,14.63
2023-03-29T15:32:35.984Z,10.18
2023-03-29T15:35:39.181Z,25.75
2023-03-29T15:38:45.331Z,14.40
2023-03-29T15:41:51.094Z,8.55
2023-03-29T15:44:56.517Z,12.53
2023-03-29T15:48:05.030Z,29.92
2023-03-29T15:51:12.607Z,27.27
2023-03-29T15:54:15.846Z,28.15
2023-03-29T15:57:19.350Z,20.12
2023-03-29T16:00:23.096Z,22.53
2023-03-29T16:03:28.212Z,18.55
2023-03-29T16:06:32.271Z,61.00
2023-03-29T16:09:36.052Z,38.88
2023-03-29T16:12:39.640Z,43.03
2023-03-29T16:15:43.345Z,41.20
2023-03-29T16:18:46.784Z,91.45
2023-03-29T16:21:51.037Z,44.45
2023-03-29T16:24:54.169Z,125.05
2023-03-29T16:27:57.520Z,13.43
2023-03-29T16:31:00.858Z,82.17
2023-03-29T16:34:05.340Z,82.12
2023-03-29T16:37:08.320Z,17.98
2023-03-29T16:40:12.616Z,57.22
2023-03-29T16:43:16.309Z,78.93
2023-03-29T16:46:19.723Z,30.03
2023-03-29T16:49:24.342Z,46.37
2023-03-29T16:52:27.885Z,28.30
2023-03-29T16:55:30.984Z,76.07
2023-03-29T16:58:35.283Z,190.10
2023-03-29T17:01:38.784Z,164.90
2023-03-29T17:04:42.574Z,152.98
2023-03-29T17:07:47.075Z,224.70
2023-03-29T17:10:52.913Z,230.57
2023-03-29T17:13:56.314Z,53.85
2023-03-29T17:16:59.766Z,53.00
2023-03-29T17:20:06.235Z,39.88
2023-03-29T17:23:10.070Z,34.15
2023-03-29T17:26:14.312Z,20.62
2023-03-29T17:29:19.648Z,18.00
2023-03-29T17:32:23.497Z,16.67
2023-03-29T17:35:27.671Z,17.70
2023-03-29T17:38:34.866Z,16.67
2023-03-29T17:41:39.751Z,44.85
2023-03-29T17:44:45.632Z,63.10
2023-03-29T17:47:50.035Z,36.17
2023-03-29T17:50:56.711Z,29.00
2023-03-29T17:54:01.804Z,20.73
2023-03-29T17:57:05.945Z,22.20
2023-03-29T18:00:14.203Z,20.40
2023-03-29T18:03:18.489Z,26.20
2023-03-29T18:06:21.947Z,32.97
2023-03-29T18:09:30.175Z,61.60
2023-03-29T18:12:34.733Z,48.10
2023-03-29T18:15:38.944Z,48.92
2023-03-29T18:18:43.801Z,38.50
2023-03-29T18:21:49.146Z,31.35
2023-03-29T18:24:52.945Z,34.97
2023-03-29T18:27:57.547Z,32.35
2023-03-29T18:31:01.967Z,35.22
2023-03-29T18:34:07.383Z,38.50
2023-03-29T18:37:15.507Z,44.80
2023-03-29T18:40:24.943Z,53.53
2023-03-29T18:43:28.848Z,74.72
2023-03-29T18:46:33.811Z,24.80
2023-03-29T18:49:39.041Z,185.37
2023-03-29T18:52:44.127Z,97.20
2023-03-29T18:55:47.894Z,43.72
2023-03-29T18:58:52.919Z,35.27
2023-03-29T19:01:57.258Z,23.38
2023-03-29T19:05:02.564Z,33.42
2023-03-29T19:08:09.617Z,23.02
2023-03-29T19:11:15.582Z,31.10
2023-03-29T19:14:24.083Z,121.47
2023-03-29T19:17:32.841Z,48.53
2023-03-29T19:20:37.011Z,34.88
2023-03-29T19:23:44.167Z,28.30
2023-03-29T19:26:55.807Z,61.20
2023-03-29T19:30:01.384Z,45.55
2023-03-29T19:33:06.668Z,108.35
2023-03-29T19:36:11.977Z,76.07
2023-03-29T19:39:18.115Z,115.12
2023-03-29T19:42:28.111Z,40.95
2023-03-29T19:45:32.398Z,29.00
2023-03-29T19:48:38.098Z,106.60
2023-03-29T19:51:43.277Z,44.95
2023-03-29T19:54:48.079Z,26.20
2023-03-29T19:57:51.878Z,22.70
2023-03-29T20:00:59.701Z,24.17
2023-03-29T20:04:03.820Z,136.57
2023-03-29T20:07:07.414Z,80.62
2023-03-29T20:10:11.468Z,62.40
2023-03-29T20:13:21.830Z,63.90
2023-03-29T20:16:34.540Z,73.18
2023-03-29T20:19:44.921Z,42.65
2023-03-29T20:22:49.750Z,57.37
2023-03-29T20:25:53.983Z,56.10
2023-03-29T20:28:58.137Z,31.75
2023-03-29T20:32:01.820Z,16.33
2023-03-29T20:35:05.582Z,13.90
2023-03-29T20:38:09.437Z,11.30
2023-03-29T20:41:14.050Z,13.60
2023-03-29T20:44:18.691Z,13.68
2023-03-29T20:47:23.606Z,17.00
2023-03-29T20:50:30.278Z,17.12
2023-03-29T20:53:34.632Z,17.98
2023-03-29T20:56:40.154Z,19.15
2023-03-29T20:59:44.696Z,16.60
2023-03-29T21:02:47.956Z,20.08
2023-03-29T21:05:54.900Z,16.37
2023-03-29T21:08:58.886Z,14.75
2023-03-29T21:12:02.916Z,15.80
2023-03-29T21:15:10.557Z,18.98
2023-03-29T21:18:14.144Z,21.12
2023-03-29T21:21:17.425Z,19.48
2023-03-29T21:24:22.001Z,15.67
2023-03-29T21:27:25.443Z,15.15
2023-03-29T21:30:31.924Z,21.05
2023-03-29T21:33:36.032Z,28.60
2023-03-29T21:36:40.021Z,19.98
2023-03-29T21:39:43.324Z,20.17
2023-03-29T21:42:46.676Z,18.08
2023-03-29T21:45:51.527Z,19.97
2023-03-29T21:48:55.108Z,20.02
2023-03-29T21:51:59.342Z,22.92
2023-03-29T21:55:08.241Z,14.73
2023-03-29T21:58:11.549Z,21.33
2023-03-29T22:01:15.917Z,15.40
2023-03-29T22:04:29.565Z,15.68
2023-03-29T22:07:39.684Z,13.55
2023-03-29T22:10:43.263Z,14.80
2023-03-29T22:13:46.669Z,15.55
2023-03-29T22:16:50.185Z,16.60
2023-03-29T22:19:53.968Z,15.82
2023-03-29T22:22:57.429Z,18.00
2023-03-29T22:26:07.777Z,14.13
2023-03-29T22:29:11.543Z,13.62
2023-03-29T22:32:15.937Z,13.77
2023-03-29T22:35:19.521Z,11.63
2023-03-29T22:38:23.604Z,16.60
2023-03-29T22:41:28.358Z,13.52
2023-03-29T22:44:33.908Z,11.77
2023-03-29T22:47:40.466Z,13.85
2023-03-29T22:50:46.645Z,14.02
2023-03-29T22:53:51.044Z,10.85
2023-03-29T22:56:54.331Z,12.77
2023-03-29T22:59:57.821Z,13.30
2023-03-29T23:03:01.270Z,10.95
2023-03-29T23:06:05.510Z,14.40
2023-03-29T23:09:09.710Z,14.40
2023-03-29T23:12:13.530Z,12.25
2023-03-29T23:15:22.973Z,11.48
2023-03-29T23:18:28.777Z,12.73
2023-03-29T23:21:33.541Z,12.82
2023-03-29T23:24:37.048Z,12.55
2023-03-29T23:27:40.214Z,14.25
2023-03-29T23:30:43.882Z,12.45
2023-03-29T23:33:47.140Z,15.80
2023-03-29T23:36:50.577Z,13.75
2023-03-29T23:39:53.838Z,16.80
2023-03-29T23:42:59.677Z,16.75
2023-03-29T23:46:08.130Z,17.65
2023-03-29T23:49:11.510Z,17.48
2023-03-29T23:52:14.782Z,20.07
2023-03-29T23:55:20.444Z,17.67
2023-03-29T23:58:23.529Z,24.85
